sensor_id;sensor_type;location;lat;lon;timestamp;P1;durP1;ratioP1;P2;durP2;ratioP2
10059;SDS011;5069;49.306;8.636;2023-01-15T00:02:40;1.00;;;0.60;;
10059;SDS011;5069;49.306;8.636;2023-01-15T00:05:41;1.27;;;0.60;;
10059;SDS011;5069;49.306;8.636;2023-01-15T00:08:43;1.03;;;0.70;;
10059;SDS011;5069;49.306;8.636;2023-01-15T00:11:45;1.40;;;0.50;;
10059;SDS011;5069;49.306;8.636;2023-01-15T00:14:46;0.57;;;0.53;;
10059;SDS011;5069;49.306;8.636;2023-01-15T00:17:47;0.60;;;0.50;;
10059;SDS011;5069;49.306;8.636;2023-01-15T00:20:49;1.30;;;0.70;;
10059;SDS011;5069;49.306;8.636;2023-01-15T00:23:59;1.37;;;0.57;;
10059;SDS011;5069;49.306;8.636;2023-01-15T00:27:19;0.80;;;0.50;;
10059;SDS011;5069;49.306;8.636;2023-01-15T00:30:39;0.50;;;0.50;;
10059;SDS011;5069;49.306;8.636;2023-01-15T00:33:42;2.17;;;0.67;;
10059;SDS011;5069;49.306;8.636;2023-01-15T00:36:43;4.60;;;0.73;;
10059;SDS011;5069;49.306;8.636;2023-01-15T00:39:45;0.97;;;0.60;;
10059;SDS011;5069;49.306;8.636;2023-01-15T00:42:47;0.97;;;0.60;;
10059;SDS011;5069;49.306;8.636;2023-01-15T00:45:54;1.10;;;0.60;;
10059;SDS011;5069;49.306;8.636;2023-01-15T00:48:56;2.03;;;0.77;;
10059;SDS011;5069;49.306;8.636;2023-01-15T00:51:57;0.93;;;0.63;;
10059;SDS011;5069;49.306;8.636;2023-01-15T00:54:59;0.47;;;0.40;;
10059;SDS011;5069;49.306;8.636;2023-01-15T00:58:03;1.90;;;0.50;;
10059;SDS011;5069;49.306;8.636;2023-01-15T01:01:04;1.40;;;0.73;;
10059;SDS011;5069;49.306;8.636;2023-01-15T01:04:07;1.30;;;0.60;;
10059;SDS011;5069;49.306;8.636;2023-01-15T01:07:09;0.93;;;0.60;;
10059;SDS011;5069;49.306;8.636;2023-01-15T01:10:10;0.70;;;0.57;;
10059;SDS011;5069;49.306;8.636;2023-01-15T01:13:12;0.87;;;0.50;;
10059;SDS011;5069;49.306;8.636;2023-01-15T01:16:21;2.00;;;1.00;;
10059;SDS011;5069;49.306;8.636;2023-01-15T01:19:24;1.43;;;0.60;;
10059;SDS011;5069;49.306;8.636;2023-01-15T01:22:26;2.57;;;0.60;;
10059;SDS011;5069;49.306;8.636;2023-01-15T01:25:28;1.23;;;0.70;;
10059;SDS011;5069;49.306;8.636;2023-01-15T01:28:29;1.53;;;0.60;;
10059;SDS011;5069;49.306;8.636;2023-01-15T01:31:30;0.80;;;0.53;;
10059;SDS011;5069;49.306;8.636;2023-01-15T01:34:32;2.20;;;0.90;;
10059;SDS011;5069;49.306;8.636;2023-01-15T01:37:34;0.47;;;0.40;;
10059;SDS011;5069;49.306;8.636;2023-01-15T01:40:37;2.97;;;0.70;;
10059;SDS011;5069;49.306;8.636;2023-01-15T01:43:58;1.10;;;0.50;;
10059;SDS011;5069;49.306;8.636;2023-01-15T01:47:08;0.50;;;0.50;;
10059;SDS011;5069;49.306;8.636;2023-01-15T01:50:12;1.37;;;0.80;;
10059;SDS011;5069;49.306;8.636;2023-01-15T01:53:19;0.70;;;0.50;;
10059;SDS011;5069;49.306;8.636;2023-01-15T01:56:23;1.47;;;0.47;;
10059;SDS011;5069;49.306;8.636;2023-01-15T01:59:24;1.00;;;0.50;;
10059;SDS011;5069;49.306;8.636;2023-01-15T02:02:27;2.97;;;0.60;;
10059;SDS011;5069;49.306;8.636;2023-01-15T02:05:30;1.47;;;0.50;;
10059;SDS011;5069;49.306;8.636;2023-01-15T02:08:33;0.60;;;0.40;;
10059;SDS011;5069;49.306;8.636;2023-01-15T02:11:35;0.40;;;0.40;;
10059;SDS011;5069;49.306;8.636;2023-01-15T02:14:47;0.60;;;0.50;;
10059;SDS011;5069;49.306;8.636;2023-01-15T02:21:08;1.77;;;0.60;;
10059;SDS011;5069;49.306;8.636;2023-01-15T02:28:09;0.50;;;0.50;;
10059;SDS011;5069;49.306;8.636;2023-01-15T02:31:23;1.90;;;0.60;;
10059;SDS011;5069;49.306;8.636;2023-01-15T02:34:30;0.57;;;0.50;;
10059;SDS011;5069;49.306;8.636;2023-01-15T02:37:40;0.40;;;0.40;;
10059;SDS011;5069;49.306;8.636;2023-01-15T02:40:51;0.63;;;0.40;;
10059;SDS011;5069;49.306;8.636;2023-01-15T02:43:57;2.97;;;0.60;;
10059;SDS011;5069;49.306;8.636;2023-01-15T02:47:02;0.50;;;0.50;;
10059;SDS011;5069;49.306;8.636;2023-01-15T02:50:06;2.77;;;0.50;;
10059;SDS011;5069;49.306;8.636;2023-01-15T02:53:16;0.50;;;0.50;;
10059;SDS011;5069;49.306;8.636;2023-01-15T02:56:24;0.97;;;0.50;;
10059;SDS011;5069;49.306;8.636;2023-01-15T02:59:33;0.80;;;0.40;;
10059;SDS011;5069;49.306;8.636;2023-01-15T03:02:45;0.50;;;0.50;;
10059;SDS011;5069;49.306;8.636;2023-01-15T03:05:58;1.60;;;0.70;;
10059;SDS011;5069;49.306;8.636;2023-01-15T03:09:05;0.60;;;0.50;;
10059;SDS011;5069;49.306;8.636;2023-01-15T03:15:19;0.87;;;0.53;;
10059;SDS011;5069;49.306;8.636;2023-01-15T03:18:50;1.10;;;0.60;;
10059;SDS011;5069;49.306;8.636;2023-01-15T03:21:58;0.53;;;0.53;;
10059;SDS011;5069;49.306;8.636;2023-01-15T03:25:09;1.50;;;0.70;;
10059;SDS011;5069;49.306;8.636;2023-01-15T03:28:25;0.70;;;0.70;;
10059;SDS011;5069;49.306;8.636;2023-01-15T03:31:28;0.40;;;0.40;;
10059;SDS011;5069;49.306;8.636;2023-01-15T03:37:57;2.30;;;0.60;;
10059;SDS011;5069;49.306;8.636;2023-01-15T03:44:31;0.50;;;0.50;;
10059;SDS011;5069;49.306;8.636;2023-01-15T03:50:47;0.20;;;0.20;;
10059;SDS011;5069;49.306;8.636;2023-01-15T03:53:59;0.53;;;0.30;;
10059;SDS011;5069;49.306;8.636;2023-01-15T03:57:12;0.53;;;0.20;;
10059;SDS011;5069;49.306;8.636;2023-01-15T04:00:26;1.60;;;0.50;;
10059;SDS011;5069;49.306;8.636;2023-01-15T04:03:33;0.30;;;0.30;;
10059;SDS011;5069;49.306;8.636;2023-01-15T04:06:37;0.20;;;0.20;;
10059;SDS011;5069;49.306;8.636;2023-01-15T04:09:41;0.20;;;0.20;;
10059;SDS011;5069;49.306;8.636;2023-01-15T04:12:45;0.30;;;0.30;;
10059;SDS011;5069;49.306;8.636;2023-01-15T04:15:48;1.17;;;0.30;;
10059;SDS011;5069;49.306;8.636;2023-01-15T04:18:52;0.93;;;0.30;;
10059;SDS011;5069;49.306;8.636;2023-01-15T04:21:53;0.20;;;0.20;;
10059;SDS011;5069;49.306;8.636;2023-01-15T04:24:55;0.20;;;0.20;;
10059;SDS011;5069;49.306;8.636;2023-01-15T04:27:57;0.20;;;0.20;;
10059;SDS011;5069;49.306;8.636;2023-01-15T04:30:58;0.27;;;0.27;;
10059;SDS011;5069;49.306;8.636;2023-01-15T04:34:03;1.23;;;0.40;;
10059;SDS011;5069;49.306;8.636;2023-01-15T04:37:04;0.20;;;0.20;;
10059;SDS011;5069;49.306;8.636;2023-01-15T04:40:06;0.60;;;0.20;;
10059;SDS011;5069;49.306;8.636;2023-01-15T04:43:11;0.43;;;0.30;;
10059;SDS011;5069;49.306;8.636;2023-01-15T04:46:33;0.30;;;0.30;;
10059;SDS011;5069;49.306;8.636;2023-01-15T04:49:36;0.30;;;0.30;;
10059;SDS011;5069;49.306;8.636;2023-01-15T04:52:38;0.30;;;0.30;;
10059;SDS011;5069;49.306;8.636;2023-01-15T04:55:39;0.67;;;0.30;;
10059;SDS011;5069;49.306;8.636;2023-01-15T04:58:41;0.57;;;0.30;;
10059;SDS011;5069;49.306;8.636;2023-01-15T05:01:42;0.50;;;0.30;;
10059;SDS011;5069;49.306;8.636;2023-01-15T05:05:03;0.80;;;0.30;;
10059;SDS011;5069;49.306;8.636;2023-01-15T05:08:04;0.40;;;0.30;;
10059;SDS011;5069;49.306;8.636;2023-01-15T05:11:06;0.30;;;0.30;;
10059;SDS011;5069;49.306;8.636;2023-01-15T05:14:07;0.30;;;0.30;;
10059;SDS011;5069;49.306;8.636;2023-01-15T05:17:09;0.80;;;0.30;;
10059;SDS011;5069;49.306;8.636;2023-01-15T05:20:10;0.20;;;0.20;;
10059;SDS011;5069;49.306;8.636;2023-01-15T05:23:12;0.20;;;0.20;;
10059;SDS011;5069;49.306;8.636;2023-01-15T05:26:14;0.27;;;0.27;;
10059;SDS011;5069;49.306;8.636;2023-01-15T05:29:15;0.70;;;0.40;;
10059;SDS011;5069;49.306;8.636;2023-01-15T05:32:17;0.30;;;0.30;;
10059;SDS011;5069;49.306;8.636;2023-01-15T05:35:18;0.30;;;0.30;;
10059;SDS011;5069;49.306;8.636;2023-01-15T05:38:20;0.40;;;0.30;;
10059;SDS011;5069;49.306;8.636;2023-01-15T05:41:21;0.27;;;0.27;;
10059;SDS011;5069;49.306;8.636;2023-01-15T05:44:42;1.30;;;0.30;;
10059;SDS011;5069;49.306;8.636;2023-01-15T05:47:43;1.40;;;0.30;;
10059;SDS011;5069;49.306;8.636;2023-01-15T05:50:44;0.27;;;0.27;;
10059;SDS011;5069;49.306;8.636;2023-01-15T05:53:46;0.20;;;0.20;;
10059;SDS011;5069;49.306;8.636;2023-01-15T05:56:47;0.30;;;0.30;;
10059;SDS011;5069;49.306;8.636;2023-01-15T05:59:49;0.20;;;0.20;;
10059;SDS011;5069;49.306;8.636;2023-01-15T06:02:50;0.30;;;0.30;;
10059;SDS011;5069;49.306;8.636;2023-01-15T06:05:52;1.43;;;0.30;;
10059;SDS011;5069;49.306;8.636;2023-01-15T06:08:55;0.20;;;0.20;;
10059;SDS011;5069;49.306;8.636;2023-01-15T06:11:57;0.20;;;0.20;;
10059;SDS011;5069;49.306;8.636;2023-01-15T06:14:58;0.30;;;0.30;;
10059;SDS011;5069;49.306;8.636;2023-01-15T06:18:00;0.40;;;0.40;;
10059;SDS011;5069;49.306;8.636;2023-01-15T06:21:03;1.60;;;0.30;;
10059;SDS011;5069;49.306;8.636;2023-01-15T06:24:06;1.03;;;0.30;;
10059;SDS011;5069;49.306;8.636;2023-01-15T06:27:08;0.30;;;0.30;;
10059;SDS011;5069;49.306;8.636;2023-01-15T06:30:10;0.30;;;0.30;;
10059;SDS011;5069;49.306;8.636;2023-01-15T06:33:12;0.30;;;0.30;;
10059;SDS011;5069;49.306;8.636;2023-01-15T06:36:14;0.30;;;0.30;;
10059;SDS011;5069;49.306;8.636;2023-01-15T06:39:17;0.30;;;0.30;;
10059;SDS011;5069;49.306;8.636;2023-01-15T06:42:19;0.60;;;0.43;;
10059;SDS011;5069;49.306;8.636;2023-01-15T06:45:39;0.40;;;0.30;;
10059;SDS011;5069;49.306;8.636;2023-01-15T06:48:59;0.40;;;0.40;;
10059;SDS011;5069;49.306;8.636;2023-01-15T06:52:02;0.23;;;0.20;;
10059;SDS011;5069;49.306;8.636;2023-01-15T06:55:04;0.87;;;0.30;;
10059;SDS011;5069;49.306;8.636;2023-01-15T06:58:06;0.30;;;0.30;;
10059;SDS011;5069;49.306;8.636;2023-01-15T07:01:12;0.23;;;0.23;;
10059;SDS011;5069;49.306;8.636;2023-01-15T07:04:15;1.13;;;0.30;;
10059;SDS011;5069;49.306;8.636;2023-01-15T07:07:18;0.50;;;0.47;;
10059;SDS011;5069;49.306;8.636;2023-01-15T07:10:20;0.70;;;0.30;;
10059;SDS011;5069;49.306;8.636;2023-01-15T07:13:21;0.30;;;0.30;;
10059;SDS011;5069;49.306;8.636;2023-01-15T07:16:23;1.03;;;0.40;;
10059;SDS011;5069;49.306;8.636;2023-01-15T07:19:30;0.40;;;0.40;;
10059;SDS011;5069;49.306;8.636;2023-01-15T07:22:31;0.33;;;0.30;;
10059;SDS011;5069;49.306;8.636;2023-01-15T07:25:33;0.40;;;0.40;;
10059;SDS011;5069;49.306;8.636;2023-01-15T07:28:34;0.93;;;0.53;;
10059;SDS011;5069;49.306;8.636;2023-01-15T07:31:36;0.60;;;0.30;;
10059;SDS011;5069;49.306;8.636;2023-01-15T07:34:38;0.87;;;0.40;;
10059;SDS011;5069;49.306;8.636;2023-01-15T07:37:39;0.73;;;0.40;;
10059;SDS011;5069;49.306;8.636;2023-01-15T07:40:41;1.20;;;0.50;;
10059;SDS011;5069;49.306;8.636;2023-01-15T07:43:42;0.73;;;0.50;;
10059;SDS011;5069;49.306;8.636;2023-01-15T07:47:02;0.43;;;0.40;;
10059;SDS011;5069;49.306;8.636;2023-01-15T07:50:35;0.30;;;0.30;;
10059;SDS011;5069;49.306;8.636;2023-01-15T07:53:36;0.30;;;0.30;;
10059;SDS011;5069;49.306;8.636;2023-01-15T07:56:38;0.37;;;0.33;;
10059;SDS011;5069;49.306;8.636;2023-01-15T07:59:39;1.17;;;0.40;;
10059;SDS011;5069;49.306;8.636;2023-01-15T08:02:41;0.83;;;0.40;;
10059;SDS011;5069;49.306;8.636;2023-01-15T08:05:42;0.40;;;0.40;;
10059;SDS011;5069;49.306;8.636;2023-01-15T08:08:44;0.30;;;0.30;;
10059;SDS011;5069;49.306;8.636;2023-01-15T08:11:45;0.40;;;0.40;;
10059;SDS011;5069;49.306;8.636;2023-01-15T08:15:05;0.30;;;0.30;;
10059;SDS011;5069;49.306;8.636;2023-01-15T08:18:15;0.90;;;0.40;;
10059;SDS011;5069;49.306;8.636;2023-01-15T08:21:16;0.30;;;0.30;;
10059;SDS011;5069;49.306;8.636;2023-01-15T08:24:18;0.77;;;0.30;;
10059;SDS011;5069;49.306;8.636;2023-01-15T08:27:19;0.40;;;0.40;;
10059;SDS011;5069;49.306;8.636;2023-01-15T08:30:22;0.33;;;0.33;;
10059;SDS011;5069;49.306;8.636;2023-01-15T08:33:25;0.70;;;0.30;;
10059;SDS011;5069;49.306;8.636;2023-01-15T08:36:26;0.57;;;0.30;;
10059;SDS011;5069;49.306;8.636;2023-01-15T08:39:28;0.60;;;0.30;;
10059;SDS011;5069;49.306;8.636;2023-01-15T08:42:29;0.40;;;0.30;;
10059;SDS011;5069;49.306;8.636;2023-01-15T08:45:31;0.50;;;0.50;;
10059;SDS011;5069;49.306;8.636;2023-01-15T08:48:32;0.70;;;0.30;;
10059;SDS011;5069;49.306;8.636;2023-01-15T08:51:34;0.93;;;0.50;;
10059;SDS011;5069;49.306;8.636;2023-01-15T08:54:35;0.30;;;0.30;;
10059;SDS011;5069;49.306;8.636;2023-01-15T08:57:37;0.43;;;0.30;;
10059;SDS011;5069;49.306;8.636;2023-01-15T09:00:38;0.43;;;0.30;;
10059;SDS011;5069;49.306;8.636;2023-01-15T09:03:41;0.47;;;0.47;;
10059;SDS011;5069;49.306;8.636;2023-01-15T09:06:43;0.30;;;0.30;;
10059;SDS011;5069;49.306;8.636;2023-01-15T09:09:45;0.50;;;0.30;;
10059;SDS011;5069;49.306;8.636;2023-01-15T09:12:46;0.83;;;0.30;;
10059;SDS011;5069;49.306;8.636;2023-01-15T09:15:48;0.60;;;0.50;;
10059;SDS011;5069;49.306;8.636;2023-01-15T09:18:49;0.40;;;0.40;;
10059;SDS011;5069;49.306;8.636;2023-01-15T09:21:50;0.63;;;0.47;;
10059;SDS011;5069;49.306;8.636;2023-01-15T09:24:52;0.70;;;0.40;;
10059;SDS011;5069;49.306;8.636;2023-01-15T09:27:54;0.57;;;0.50;;
10059;SDS011;5069;49.306;8.636;2023-01-15T09:30:56;1.00;;;0.70;;
10059;SDS011;5069;49.306;8.636;2023-01-15T09:33:57;0.83;;;0.70;;
10059;SDS011;5069;49.306;8.636;2023-01-15T09:36:59;1.07;;;0.70;;
10059;SDS011;5069;49.306;8.636;2023-01-15T09:40:00;0.90;;;0.90;;
10059;SDS011;5069;49.306;8.636;2023-01-15T09:43:05;1.10;;;0.80;;
10059;SDS011;5069;49.306;8.636;2023-01-15T09:49:30;1.33;;;0.60;;
10059;SDS011;5069;49.306;8.636;2023-01-15T09:55:51;0.87;;;0.60;;
10059;SDS011;5069;49.306;8.636;2023-01-15T09:58:55;0.50;;;0.50;;
10059;SDS011;5069;49.306;8.636;2023-01-15T10:01:59;1.23;;;0.60;;
10059;SDS011;5069;49.306;8.636;2023-01-15T10:05:10;0.63;;;0.40;;
10059;SDS011;5069;49.306;8.636;2023-01-15T10:08:35;0.40;;;0.40;;
10059;SDS011;5069;49.306;8.636;2023-01-15T10:11:49;0.40;;;0.40;;
10059;SDS011;5069;49.306;8.636;2023-01-15T10:15:16;0.40;;;0.40;;
10059;SDS011;5069;49.306;8.636;2023-01-15T10:18:24;0.70;;;0.40;;
10059;SDS011;5069;49.306;8.636;2023-01-15T10:21:46;2.00;;;0.67;;
10059;SDS011;5069;49.306;8.636;2023-01-15T10:24:57;0.43;;;0.40;;
10059;SDS011;5069;49.306;8.636;2023-01-15T10:28:00;1.03;;;0.50;;
10059;SDS011;5069;49.306;8.636;2023-01-15T10:31:21;0.50;;;0.50;;
10059;SDS011;5069;49.306;8.636;2023-01-15T10:34:33;0.93;;;0.50;;
10059;SDS011;5069;49.306;8.636;2023-01-15T10:51:13;0.73;;;0.60;;
10059;SDS011;5069;49.306;8.636;2023-01-15T11:01:10;0.80;;;0.40;;
10059;SDS011;5069;49.306;8.636;2023-01-15T11:04:15;0.87;;;0.50;;
10059;SDS011;5069;49.306;8.636;2023-01-15T11:07:16;0.60;;;0.40;;
10059;SDS011;5069;49.306;8.636;2023-01-15T11:10:19;0.70;;;0.50;;
10059;SDS011;5069;49.306;8.636;2023-01-15T11:13:24;0.40;;;0.40;;
10059;SDS011;5069;49.306;8.636;2023-01-15T11:16:44;0.93;;;0.43;;
10059;SDS011;5069;49.306;8.636;2023-01-15T11:20:50;3.07;;;0.80;;
10059;SDS011;5069;49.306;8.636;2023-01-15T11:23:36;1.20;;;0.47;;
10059;SDS011;5069;49.306;8.636;2023-01-15T11:26:38;2.00;;;0.40;;
10059;SDS011;5069;49.306;8.636;2023-01-15T11:29:39;1.33;;;0.50;;
10059;SDS011;5069;49.306;8.636;2023-01-15T11:32:44;0.40;;;0.40;;
10059;SDS011;5069;49.306;8.636;2023-01-15T11:35:56;1.47;;;0.50;;
10059;SDS011;5069;49.306;8.636;2023-01-15T11:39:00;2.23;;;0.40;;
10059;SDS011;5069;49.306;8.636;2023-01-15T11:42:03;0.90;;;0.50;;
10059;SDS011;5069;49.306;8.636;2023-01-15T11:45:24;0.73;;;0.57;;
10059;SDS011;5069;49.306;8.636;2023-01-15T11:48:46;2.63;;;0.50;;
10059;SDS011;5069;49.306;8.636;2023-01-15T11:52:07;1.67;;;0.80;;
10059;SDS011;5069;49.306;8.636;2023-01-15T11:55:12;1.70;;;1.27;;
10059;SDS011;5069;49.306;8.636;2023-01-15T11:58:15;3.50;;;0.80;;
10059;SDS011;5069;49.306;8.636;2023-01-15T12:01:21;2.03;;;0.70;;
10059;SDS011;5069;49.306;8.636;2023-01-15T12:04:36;1.43;;;0.60;;
10059;SDS011;5069;49.306;8.636;2023-01-15T12:07:46;2.30;;;0.70;;
10059;SDS011;5069;49.306;8.636;2023-01-15T12:10:54;2.70;;;0.60;;
10059;SDS011;5069;49.306;8.636;2023-01-15T12:14:38;1.47;;;0.70;;
10059;SDS011;5069;49.306;8.636;2023-01-15T12:21:39;2.80;;;0.80;;
10059;SDS011;5069;49.306;8.636;2023-01-15T12:28:11;1.23;;;0.70;;
10059;SDS011;5069;49.306;8.636;2023-01-15T12:31:31;1.40;;;0.77;;
10059;SDS011;5069;49.306;8.636;2023-01-15T12:37:56;1.23;;;0.80;;
10059;SDS011;5069;49.306;8.636;2023-01-15T12:41:09;2.20;;;0.80;;
10059;SDS011;5069;49.306;8.636;2023-01-15T12:44:15;1.43;;;0.90;;
10059;SDS011;5069;49.306;8.636;2023-01-15T12:47:55;1.73;;;0.83;;
10059;SDS011;5069;49.306;8.636;2023-01-15T12:51:02;1.80;;;0.70;;
10059;SDS011;5069;49.306;8.636;2023-01-15T12:54:09;2.77;;;0.97;;
10059;SDS011;5069;49.306;8.636;2023-01-15T12:57:15;3.63;;;2.07;;
10059;SDS011;5069;49.306;8.636;2023-01-15T13:00:27;1.43;;;0.67;;
10059;SDS011;5069;49.306;8.636;2023-01-15T13:07:13;1.70;;;0.83;;
10059;SDS011;5069;49.306;8.636;2023-01-15T13:10:23;2.07;;;1.13;;
10059;SDS011;5069;49.306;8.636;2023-01-15T13:13:31;4.33;;;1.70;;
10059;SDS011;5069;49.306;8.636;2023-01-15T13:16:37;3.93;;;1.17;;
10059;SDS011;5069;49.306;8.636;2023-01-15T13:36:43;2.07;;;0.70;;
10059;SDS011;5069;49.306;8.636;2023-01-15T13:39:48;3.03;;;1.10;;
10059;SDS011;5069;49.306;8.636;2023-01-15T13:42:52;4.07;;;1.30;;
10059;SDS011;5069;49.306;8.636;2023-01-15T13:45:54;2.67;;;1.07;;
10059;SDS011;5069;49.306;8.636;2023-01-15T13:48:57;3.60;;;0.97;;
10059;SDS011;5069;49.306;8.636;2023-01-15T13:51:58;2.53;;;0.97;;
10059;SDS011;5069;49.306;8.636;2023-01-15T13:55:14;3.43;;;1.10;;
10059;SDS011;5069;49.306;8.636;2023-01-15T13:58:23;3.13;;;0.93;;
10059;SDS011;5069;49.306;8.636;2023-01-15T14:04:32;4.07;;;1.13;;
10059;SDS011;5069;49.306;8.636;2023-01-15T14:07:37;4.80;;;0.93;;
10059;SDS011;5069;49.306;8.636;2023-01-15T14:10:39;2.10;;;0.80;;
10059;SDS011;5069;49.306;8.636;2023-01-15T14:23:37;2.43;;;0.80;;
10059;SDS011;5069;49.306;8.636;2023-01-15T14:27:12;1.73;;;0.90;;
10059;SDS011;5069;49.306;8.636;2023-01-15T14:33:43;2.20;;;0.90;;
10059;SDS011;5069;49.306;8.636;2023-01-15T14:37:18;2.50;;;1.10;;
10059;SDS011;5069;49.306;8.636;2023-01-15T14:40:27;5.70;;;0.87;;
10059;SDS011;5069;49.306;8.636;2023-01-15T14:43:31;2.23;;;0.93;;
10059;SDS011;5069;49.306;8.636;2023-01-15T14:46:36;2.07;;;0.87;;
10059;SDS011;5069;49.306;8.636;2023-01-15T14:49:42;3.07;;;0.93;;
10059;SDS011;5069;49.306;8.636;2023-01-15T14:52:50;3.30;;;0.90;;
10059;SDS011;5069;49.306;8.636;2023-01-15T14:56:09;1.73;;;0.83;;
10059;SDS011;5069;49.306;8.636;2023-01-15T14:59:20;2.37;;;0.83;;
10059;SDS011;5069;49.306;8.636;2023-01-15T15:02:31;2.70;;;1.00;;
10059;SDS011;5069;49.306;8.636;2023-01-15T15:05:36;2.20;;;0.80;;
10059;SDS011;5069;49.306;8.636;2023-01-15T15:08:37;2.83;;;0.90;;
10059;SDS011;5069;49.306;8.636;2023-01-15T15:11:44;3.80;;;1.30;;
10059;SDS011;5069;49.306;8.636;2023-01-15T15:18:27;3.80;;;1.10;;
10059;SDS011;5069;49.306;8.636;2023-01-15T15:21:39;2.90;;;1.10;;
10059;SDS011;5069;49.306;8.636;2023-01-15T15:24:46;3.23;;;0.80;;
10059;SDS011;5069;49.306;8.636;2023-01-15T15:28:04;4.33;;;0.90;;
10059;SDS011;5069;49.306;8.636;2023-01-15T15:31:09;5.63;;;1.23;;
10059;SDS011;5069;49.306;8.636;2023-01-15T15:34:14;2.70;;;1.07;;
10059;SDS011;5069;49.306;8.636;2023-01-15T15:37:24;3.30;;;1.10;;
10059;SDS011;5069;49.306;8.636;2023-01-15T15:40:32;3.60;;;1.10;;
10059;SDS011;5069;49.306;8.636;2023-01-15T15:47:17;2.73;;;0.90;;
10059;SDS011;5069;49.306;8.636;2023-01-15T15:50:41;2.50;;;0.93;;
10059;SDS011;5069;49.306;8.636;2023-01-15T15:53:43;2.17;;;1.00;;
10059;SDS011;5069;49.306;8.636;2023-01-15T16:00:02;2.20;;;1.10;;
10059;SDS011;5069;49.306;8.636;2023-01-15T16:03:05;1.93;;;1.23;;
10059;SDS011;5069;49.306;8.636;2023-01-15T16:06:19;1.27;;;0.80;;
10059;SDS011;5069;49.306;8.636;2023-01-15T16:09:22;2.17;;;0.90;;
10059;SDS011;5069;49.306;8.636;2023-01-15T16:12:25;3.50;;;1.00;;
10059;SDS011;5069;49.306;8.636;2023-01-15T16:15:40;1.83;;;0.77;;
10059;SDS011;5069;49.306;8.636;2023-01-15T16:18:46;2.30;;;1.00;;
10059;SDS011;5069;49.306;8.636;2023-01-15T16:21:50;1.70;;;0.87;;
10059;SDS011;5069;49.306;8.636;2023-01-15T16:24:53;2.83;;;1.10;;
10059;SDS011;5069;49.306;8.636;2023-01-15T16:27:56;1.70;;;1.07;;
10059;SDS011;5069;49.306;8.636;2023-01-15T16:30:59;2.10;;;1.37;;
10059;SDS011;5069;49.306;8.636;2023-01-15T16:34:05;4.27;;;1.20;;
10059;SDS011;5069;49.306;8.636;2023-01-15T16:37:15;1.77;;;1.10;;
10059;SDS011;5069;49.306;8.636;2023-01-15T16:40:32;5.10;;;3.10;;
10059;SDS011;5069;49.306;8.636;2023-01-15T16:43:49;3.00;;;1.70;;
10059;SDS011;5069;49.306;8.636;2023-01-15T16:46:59;4.23;;;1.10;;
10059;SDS011;5069;49.306;8.636;2023-01-15T17:02:46;1.67;;;0.80;;
10059;SDS011;5069;49.306;8.636;2023-01-15T17:05:48;3.40;;;1.27;;
10059;SDS011;5069;49.306;8.636;2023-01-15T17:08:54;2.87;;;1.07;;
10059;SDS011;5069;49.306;8.636;2023-01-15T17:12:00;2.93;;;1.20;;
10059;SDS011;5069;49.306;8.636;2023-01-15T17:18:22;3.27;;;1.00;;
10059;SDS011;5069;49.306;8.636;2023-01-15T17:21:26;2.17;;;0.83;;
10059;SDS011;5069;49.306;8.636;2023-01-15T17:24:29;1.77;;;0.90;;
10059;SDS011;5069;49.306;8.636;2023-01-15T17:27:30;1.33;;;0.90;;
10059;SDS011;5069;49.306;8.636;2023-01-15T17:30:32;2.20;;;0.90;;
10059;SDS011;5069;49.306;8.636;2023-01-15T17:33:34;4.40;;;1.50;;
10059;SDS011;5069;49.306;8.636;2023-01-15T17:36:36;2.93;;;1.50;;
10059;SDS011;5069;49.306;8.636;2023-01-15T17:39:37;4.57;;;1.20;;
10059;SDS011;5069;49.306;8.636;2023-01-15T17:42:39;3.73;;;1.33;;
10059;SDS011;5069;49.306;8.636;2023-01-15T17:45:40;3.87;;;1.13;;
10059;SDS011;5069;49.306;8.636;2023-01-15T17:48:43;3.10;;;1.20;;
10059;SDS011;5069;49.306;8.636;2023-01-15T17:51:44;4.00;;;1.40;;
10059;SDS011;5069;49.306;8.636;2023-01-15T17:54:45;2.27;;;1.30;;
10059;SDS011;5069;49.306;8.636;2023-01-15T17:58:07;4.07;;;1.20;;
10059;SDS011;5069;49.306;8.636;2023-01-15T18:01:32;2.30;;;1.00;;
10059;SDS011;5069;49.306;8.636;2023-01-15T18:05:07;2.63;;;1.20;;
10059;SDS011;5069;49.306;8.636;2023-01-15T18:08:31;2.30;;;1.17;;
10059;SDS011;5069;49.306;8.636;2023-01-15T18:11:33;4.97;;;1.37;;
10059;SDS011;5069;49.306;8.636;2023-01-15T18:14:35;3.10;;;1.07;;
10059;SDS011;5069;49.306;8.636;2023-01-15T18:17:37;3.93;;;1.00;;
10059;SDS011;5069;49.306;8.636;2023-01-15T18:20:38;4.40;;;1.50;;
10059;SDS011;5069;49.306;8.636;2023-01-15T18:23:40;4.20;;;1.50;;
10059;SDS011;5069;49.306;8.636;2023-01-15T18:26:41;2.47;;;1.20;;
10059;SDS011;5069;49.306;8.636;2023-01-15T18:29:43;1.90;;;1.00;;
10059;SDS011;5069;49.306;8.636;2023-01-15T18:32:45;3.57;;;1.50;;
10059;SDS011;5069;49.306;8.636;2023-01-15T18:35:46;3.77;;;1.30;;
10059;SDS011;5069;49.306;8.636;2023-01-15T18:38:48;7.17;;;2.20;;
10059;SDS011;5069;49.306;8.636;2023-01-15T18:41:49;6.00;;;1.80;;
10059;SDS011;5069;49.306;8.636;2023-01-15T18:44:50;3.57;;;1.10;;
10059;SDS011;5069;49.306;8.636;2023-01-15T18:48:11;6.93;;;2.03;;
10059;SDS011;5069;49.306;8.636;2023-01-15T18:51:12;4.27;;;1.20;;
10059;SDS011;5069;49.306;8.636;2023-01-15T18:54:14;4.50;;;1.40;;
10059;SDS011;5069;49.306;8.636;2023-01-15T18:57:15;4.27;;;1.40;;
10059;SDS011;5069;49.306;8.636;2023-01-15T19:00:17;2.87;;;1.47;;
10059;SDS011;5069;49.306;8.636;2023-01-15T19:03:20;4.07;;;1.63;;
10059;SDS011;5069;49.306;8.636;2023-01-15T19:06:21;4.07;;;1.20;;
10059;SDS011;5069;49.306;8.636;2023-01-15T19:09:23;3.27;;;0.90;;
10059;SDS011;5069;49.306;8.636;2023-01-15T19:12:24;2.93;;;1.43;;
10059;SDS011;5069;49.306;8.636;2023-01-15T19:15:26;3.10;;;1.20;;
10059;SDS011;5069;49.306;8.636;2023-01-15T19:18:46;4.70;;;1.40;;
10059;SDS011;5069;49.306;8.636;2023-01-15T19:21:53;3.30;;;1.30;;
10059;SDS011;5069;49.306;8.636;2023-01-15T19:25:13;5.70;;;1.80;;
10059;SDS011;5069;49.306;8.636;2023-01-15T19:28:16;4.03;;;1.50;;
10059;SDS011;5069;49.306;8.636;2023-01-15T19:31:20;1.50;;;0.90;;
10059;SDS011;5069;49.306;8.636;2023-01-15T19:34:37;3.63;;;1.20;;
10059;SDS011;5069;49.306;8.636;2023-01-15T19:37:39;3.00;;;1.40;;
10059;SDS011;5069;49.306;8.636;2023-01-15T19:40:40;2.10;;;1.10;;
10059;SDS011;5069;49.306;8.636;2023-01-15T19:43:42;2.57;;;1.30;;
10059;SDS011;5069;49.306;8.636;2023-01-15T19:47:02;3.43;;;1.00;;
10059;SDS011;5069;49.306;8.636;2023-01-15T19:50:25;2.83;;;0.93;;
10059;SDS011;5069;49.306;8.636;2023-01-15T19:53:32;3.33;;;1.03;;
10059;SDS011;5069;49.306;8.636;2023-01-15T19:56:35;3.50;;;1.03;;
10059;SDS011;5069;49.306;8.636;2023-01-15T19:59:37;3.07;;;1.17;;
10059;SDS011;5069;49.306;8.636;2023-01-15T20:02:38;2.67;;;1.07;;
10059;SDS011;5069;49.306;8.636;2023-01-15T20:05:40;3.60;;;1.87;;
10059;SDS011;5069;49.306;8.636;2023-01-15T20:08:43;4.47;;;1.70;;
10059;SDS011;5069;49.306;8.636;2023-01-15T20:11:44;1.63;;;1.00;;
10059;SDS011;5069;49.306;8.636;2023-01-15T20:15:04;1.80;;;1.00;;
10059;SDS011;5069;49.306;8.636;2023-01-15T20:18:06;2.50;;;1.00;;
10059;SDS011;5069;49.306;8.636;2023-01-15T20:21:08;3.03;;;1.20;;
10059;SDS011;5069;49.306;8.636;2023-01-15T20:24:14;1.70;;;1.13;;
10059;SDS011;5069;49.306;8.636;2023-01-15T20:27:16;4.50;;;1.30;;
10059;SDS011;5069;49.306;8.636;2023-01-15T20:30:17;3.70;;;1.00;;
10059;SDS011;5069;49.306;8.636;2023-01-15T20:33:25;3.13;;;1.10;;
10059;SDS011;5069;49.306;8.636;2023-01-15T20:36:27;4.60;;;1.33;;
10059;SDS011;5069;49.306;8.636;2023-01-15T20:39:33;3.90;;;1.13;;
10059;SDS011;5069;49.306;8.636;2023-01-15T20:42:35;2.87;;;1.20;;
10059;SDS011;5069;49.306;8.636;2023-01-15T20:46:04;4.80;;;1.80;;
10059;SDS011;5069;49.306;8.636;2023-01-15T20:49:07;4.70;;;1.80;;
10059;SDS011;5069;49.306;8.636;2023-01-15T20:52:29;4.87;;;1.90;;
10059;SDS011;5069;49.306;8.636;2023-01-15T20:55:30;6.40;;;1.80;;
10059;SDS011;5069;49.306;8.636;2023-01-15T20:58:54;3.57;;;1.53;;
10059;SDS011;5069;49.306;8.636;2023-01-15T21:01:56;3.97;;;1.30;;